M I D A S
Marine Information and Data Acquisition System
Tripno 52 of the Zeeleeuw from 2001-05-28 09:45:00 to 2001-05-28 18:25:00
Back to CruiseResearch ActivitiesStationsMapUnderway DataData graphs

EquipmentUnitsComment
TimeDGPSUTC
LatitudeDGPSDM.mWGS84
LongitudeDGPSDM.mWGS84
TemperatureSBE03/SBE38deg celciusITS90
ConductivitySBE21S/mITS90
SalinitySBE21 Practical Salinity Units
ChlorophylAChelsea fluorimeterg/lCalibrated in Aceton
Missing or incorrect values are displayed as -999
Sea surface data collected by the RV Zeeleeuw from 2001-05-28 09:45:00 to 2001-05-28 18:25:00
                                                                                    Next 1000 lines
Time Latitude Longitude Temperature Conductivity Salinity ChlorophylA
2001-05-28 09:45:10 51°24.722 3°9.815 -999 -999 -999  
2001-05-28 09:45:15 51°24.721 3°9.784 -999 -999 -999  
2001-05-28 09:45:20 51°24.719 3°9.752 -999 -999 -999  
2001-05-28 09:45:25 51°24.718 3°9.721 -999 -999 -999  
2001-05-28 09:45:30 51°24.717 3°9.689 -999 -999 -999  
2001-05-28 09:45:35 51°24.716 3°9.657 -999 -999 -999  
2001-05-28 09:45:40 51°24.716 3°9.626 -999 -999 -999  
2001-05-28 09:45:45 51°24.716 3°9.594 -999 -999 -999  
2001-05-28 09:45:50 51°24.716 3°9.563 -999 -999 -999  
2001-05-28 09:45:55 51°24.717 3°9.531 -999 -999 -999  
2001-05-28 09:46:00 51°24.717 3°9.499 -999 -999 -999  
2001-05-28 09:46:05 51°24.717 3°9.468 -999 -999 -999  
2001-05-28 09:46:10 51°24.716 3°9.436 -999 -999 -999  
2001-05-28 09:46:15 51°24.716 3°9.405 -999 -999 -999  
2001-05-28 09:46:20 51°24.714 3°9.374 -999 -999 -999  
2001-05-28 09:46:25 51°24.713 3°9.342 -999 -999 -999  
2001-05-28 09:46:30 51°24.713 3°9.311 -999 -999 -999  
2001-05-28 09:46:35 51°24.713 3°9.28 -999 -999 -999  
2001-05-28 09:46:40 51°24.713 3°9.249 -999 -999 -999  
2001-05-28 09:46:45 51°24.715 3°9.217 -999 -999 -999  
2001-05-28 09:46:50 51°24.718 3°9.187 -999 -999 -999  
2001-05-28 09:46:55 51°24.722 3°9.156 -999 -999 -999  
2001-05-28 09:47:00 51°24.727 3°9.126 -999 -999 -999  
2001-05-28 09:47:05 51°24.732 3°9.096 -999 -999 -999  
2001-05-28 09:47:10 51°24.736 3°9.066 -999 -999 -999  
2001-05-28 09:47:15 51°24.74 3°9.036 -999 -999 -999  
2001-05-28 09:47:20 51°24.744 3°9.006 -999 -999 -999  
2001-05-28 09:47:25 51°24.747 3°8.975 -999 -999 -999  
2001-05-28 09:47:30 51°24.75 3°8.944 -999 -999 -999  
2001-05-28 09:47:35 51°24.753 3°8.914 -999 -999 -999  
2001-05-28 09:47:40 51°24.755 3°8.883 -999 -999 -999  
2001-05-28 09:47:45 51°24.757 3°8.853 -999 -999 -999  
2001-05-28 09:47:50 51°24.759 3°8.822 -999 -999 -999  
2001-05-28 09:47:55 51°24.762 3°8.792 -999 -999 -999  
2001-05-28 09:48:00 51°24.764 3°8.761 -999 -999 -999  
2001-05-28 09:48:05 51°24.766 3°8.731 -999 -999 -999  
2001-05-28 09:48:10 51°24.769 3°8.7 -999 -999 -999  
2001-05-28 09:48:15 51°24.771 3°8.67 -999 -999 -999  
2001-05-28 09:48:20 51°24.773 3°8.639 -999 -999 -999  
2001-05-28 09:48:25 51°24.775 3°8.608 -999 -999 -999  
2001-05-28 09:48:30 51°24.778 3°8.577 -999 -999 -999  
2001-05-28 09:48:35 51°24.78 3°8.547 -999 -999 -999  
2001-05-28 09:48:40 51°24.782 3°8.516 -999 -999 -999  
2001-05-28 09:48:45 51°24.785 3°8.486 -999 -999 -999  
2001-05-28 09:48:50 51°24.788 3°8.455 -999 -999 -999  
2001-05-28 09:48:55 51°24.791 3°8.425 -999 -999 -999  
2001-05-28 09:49:00 51°24.796 3°8.395 -999 -999 -999  
2001-05-28 09:49:05 51°24.801 3°8.365 -999 -999 -999  
2001-05-28 09:49:10 51°24.808 3°8.337 -999 -999 -999  
2001-05-28 09:49:15 51°24.816 3°8.309 -999 -999 -999  
2001-05-28 09:49:20 51°24.824 3°8.282 -999 -999 -999  
2001-05-28 09:49:25 51°24.833 3°8.255 -999 -999 -999  
2001-05-28 09:49:30 51°24.841 3°8.227 -999 -999 -999  
2001-05-28 09:49:35 51°24.849 3°8.199 -999 -999 -999  
2001-05-28 09:49:40 51°24.857 3°8.172 -999 -999 -999  
2001-05-28 09:49:45 51°24.864 3°8.143 -999 -999 -999  
2001-05-28 09:49:50 51°24.87 3°8.114 -999 -999 -999  
2001-05-28 09:49:55 51°24.876 3°8.084 -999 -999 -999  
2001-05-28 09:50:00 51°24.881 3°8.055 -999 -999 -999  
2001-05-28 09:50:05 51°24.885 3°8.027 -999 -999 -999  
2001-05-28 09:50:10 51°24.89 3°7.998 -999 -999 -999  
2001-05-28 09:50:15 51°24.895 3°7.968 -999 -999 -999  
2001-05-28 09:50:20 51°24.899 3°7.939 -999 -999 -999  
2001-05-28 09:50:25 51°24.906 3°7.909 -999 -999 -999  
2001-05-28 09:50:30 51°24.912 3°7.881 -999 -999 -999  
2001-05-28 09:50:35 51°24.92 3°7.853 -999 -999 -999  
2001-05-28 09:50:40 51°24.927 3°7.825 -999 -999 -999  
2001-05-28 09:50:45 51°24.934 3°7.797 -999 -999 -999  
2001-05-28 09:50:50 51°24.942 3°7.769 -999 -999 -999  
2001-05-28 09:50:55 51°24.949 3°7.741 -999 -999 -999  
2001-05-28 09:51:00 51°24.957 3°7.714 -999 -999 -999  
2001-05-28 09:51:05 51°24.964 3°7.686 -999 -999 -999  
2001-05-28 09:51:10 51°24.971 3°7.657 -999 -999 -999  
2001-05-28 09:51:15 51°24.978 3°7.629 -999 -999 -999  
2001-05-28 09:51:20 51°24.985 3°7.601 -999 -999 -999  
2001-05-28 09:51:25 51°24.992 3°7.573 -999 -999 -999  
2001-05-28 09:51:30 51°25.001 3°7.546 -999 -999 -999  
2001-05-28 09:51:35 51°25.009 3°7.519 -999 -999 -999  
2001-05-28 09:51:40 51°25.018 3°7.493 -999 -999 -999  
2001-05-28 09:51:45 51°25.028 3°7.466 -999 -999 -999  
2001-05-28 09:51:50 51°25.037 3°7.44 -999 -999 -999  
2001-05-28 09:51:55 51°25.047 3°7.415 -999 -999 -999  
2001-05-28 09:52:00 51°25.056 3°7.389 -999 -999 -999  
2001-05-28 09:52:05 51°25.065 3°7.363 -999 -999 -999  
2001-05-28 09:52:10 51°25.076 3°7.338 -999 -999 -999  
2001-05-28 09:52:15 51°25.086 3°7.313 -999 -999 -999  
2001-05-28 09:52:20 51°25.097 3°7.289 -999 -999 -999  
2001-05-28 09:52:25 51°25.109 3°7.266 -999 -999 -999  
2001-05-28 09:52:30 51°25.121 3°7.244 -999 -999 -999  
2001-05-28 09:52:35 51°25.134 3°7.223 -999 -999 -999  
2001-05-28 09:52:40 51°25.148 3°7.203 -999 -999 -999  
2001-05-28 09:52:45 51°25.161 3°7.184 -999 -999 -999  
2001-05-28 09:52:50 51°25.176 3°7.164 -999 -999 -999  
2001-05-28 09:52:55 51°25.19 3°7.146 -999 -999 -999  
2001-05-28 09:53:00 51°25.204 3°7.127 -999 -999 -999  
2001-05-28 09:53:05 51°25.219 3°7.108 -999 -999 -999  
2001-05-28 09:53:10 51°25.234 3°7.09 -999 -999 -999  
2001-05-28 09:53:15 51°25.249 3°7.072 -999 -999 -999  
2001-05-28 09:53:20 51°25.263 3°7.053 -999 -999 -999  
2001-05-28 09:53:25 51°25.277 3°7.034 -999 -999 -999  
2001-05-28 09:53:30 51°25.291 3°7.015 -999 -999 -999  
2001-05-28 09:53:35 51°25.306 3°6.996 -999 -999 -999  
2001-05-28 09:53:40 51°25.321 3°6.978 -999 -999 -999  
2001-05-28 09:53:45 51°25.336 3°6.962 -999 -999 -999  
2001-05-28 09:53:50 51°25.352 3°6.947 -999 -999 -999  
2001-05-28 09:53:55 51°25.37 3°6.933 -999 -999 -999  
2001-05-28 09:54:00 51°25.387 3°6.923 -999 -999 -999  
2001-05-28 09:54:05 51°25.405 3°6.915 -999 -999 -999  
2001-05-28 09:54:10 51°25.423 3°6.908 -999 -999 -999  
2001-05-28 09:54:15 51°25.44 3°6.902 -999 -999 -999  
2001-05-28 09:54:20 51°25.458 3°6.895 -999 -999 -999  
2001-05-28 09:54:25 51°25.476 3°6.886 -999 -999 -999  
2001-05-28 09:54:30 51°25.494 3°6.877 -999 -999 -999  
2001-05-28 09:54:35 51°25.512 3°6.867 -999 -999 -999  
2001-05-28 09:54:40 51°25.53 3°6.857 -999 -999 -999  
2001-05-28 09:54:45 51°25.547 3°6.848 -999 -999 -999  
2001-05-28 09:54:50 51°25.565 3°6.839 -999 -999 -999  
2001-05-28 09:54:55 51°25.584 3°6.83 -999 -999 -999  
2001-05-28 09:55:00 51°25.601 3°6.82 -999 -999 -999  
2001-05-28 09:55:05 51°25.619 3°6.81 -999 -999 -999  
2001-05-28 09:55:10 51°25.638 3°6.8 -999 -999 -999  
2001-05-28 09:55:15 51°25.656 3°6.789 -999 -999 -999  
2001-05-28 09:55:20 51°25.673 3°6.778 -999 -999 -999  
2001-05-28 09:55:25 51°25.69 3°6.767 -999 -999 -999  
2001-05-28 09:55:30 51°25.707 3°6.755 -999 -999 -999  
2001-05-28 09:55:35 51°25.724 3°6.744 -999 -999 -999  
2001-05-28 09:55:40 51°25.741 3°6.733 -999 -999 -999  
2001-05-28 09:55:45 51°25.759 3°6.722 -999 -999 -999  
2001-05-28 09:55:50 51°25.776 3°6.712 -999 -999 -999  
2001-05-28 09:55:55 51°25.793 3°6.702 -999 -999 -999  
2001-05-28 09:56:00 51°25.81 3°6.693 -999 -999 -999  
2001-05-28 09:56:05 51°25.827 3°6.685 -999 -999 -999  
2001-05-28 09:56:10 51°25.845 3°6.678 -999 -999 -999  
2001-05-28 09:56:15 51°25.864 3°6.67 -999 -999 -999  
2001-05-28 09:56:20 51°25.881 3°6.662 -999 -999 -999  
2001-05-28 09:56:25 51°25.899 3°6.653 -999 -999 -999  
2001-05-28 09:56:30 51°25.916 3°6.643 -999 -999 -999  
2001-05-28 09:56:35 51°25.934 3°6.631 -999 -999 -999  
2001-05-28 09:56:40 51°25.951 3°6.619 -999 -999 -999  
2001-05-28 09:56:45 51°25.967 3°6.608 -999 -999 -999  
2001-05-28 09:56:50 51°25.984 3°6.598 -999 -999 -999  
2001-05-28 09:56:55 51°26.002 3°6.588 -999 -999 -999  
2001-05-28 09:57:00 51°26.02 3°6.58 -999 -999 -999  
2001-05-28 09:57:05 51°26.038 3°6.574 -999 -999 -999  
2001-05-28 09:57:10 51°26.055 3°6.567 -999 -999 -999  
2001-05-28 09:57:15 51°26.073 3°6.562 -999 -999 -999  
2001-05-28 09:57:20 51°26.09 3°6.557 -999 -999 -999  
2001-05-28 09:57:25 51°26.108 3°6.55 -999 -999 -999  
2001-05-28 09:57:30 51°26.126 3°6.544 -999 -999 -999  
2001-05-28 09:57:35 51°26.143 3°6.537 -999 -999 -999  
2001-05-28 09:57:40 51°26.161 3°6.529 -999 -999 -999  
2001-05-28 09:57:45 51°26.178 3°6.521 -999 -999 -999  
2001-05-28 09:57:50 51°26.197 3°6.512 -999 -999 -999  
2001-05-28 09:57:55 51°26.212 3°6.502 -999 -999 -999  
2001-05-28 09:58:00 51°26.229 3°6.491 -999 -999 -999  
2001-05-28 09:58:05 51°26.247 3°6.479 -999 -999 -999  
2001-05-28 09:58:10 51°26.265 3°6.467 -999 -999 -999  
2001-05-28 09:58:15 51°26.282 3°6.455 -999 -999 -999  
2001-05-28 09:58:20 51°26.299 3°6.443 -999 -999 -999  
2001-05-28 09:58:25 51°26.316 3°6.431 -999 -999 -999  
2001-05-28 09:58:30 51°26.333 3°6.42 -999 -999 -999  
2001-05-28 09:58:35 51°26.351 3°6.41 -999 -999 -999  
2001-05-28 09:58:40 51°26.368 3°6.401 -999 -999 -999  
2001-05-28 09:58:45 51°26.386 3°6.392 -999 -999 -999  
2001-05-28 09:58:50 51°26.404 3°6.382 -999 -999 -999  
2001-05-28 09:58:55 51°26.421 3°6.372 -999 -999 -999  
2001-05-28 09:59:00 51°26.439 3°6.36 -999 -999 -999  
2001-05-28 09:59:05 51°26.457 3°6.348 -999 -999 -999  
2001-05-28 09:59:10 51°26.474 3°6.336 -999 -999 -999  
2001-05-28 09:59:15 51°26.491 3°6.324 -999 -999 -999  
2001-05-28 09:59:20 51°26.508 3°6.311 -999 -999 -999  
2001-05-28 09:59:25 51°26.525 3°6.298 -999 -999 -999  
2001-05-28 09:59:30 51°26.542 3°6.286 -999 -999 -999  
2001-05-28 09:59:35 51°26.558 3°6.275 -999 -999 -999  
2001-05-28 09:59:40 51°26.575 3°6.265 -999 -999 -999  
2001-05-28 09:59:45 51°26.593 3°6.257 -999 -999 -999  
2001-05-28 09:59:50 51°26.61 3°6.249 -999 -999 -999  
2001-05-28 09:59:55 51°26.627 3°6.242 -999 -999 -999  
2001-05-28 10:00:00 51°26.645 3°6.234 -999 -999 -999  
2001-05-28 10:00:05 51°26.663 3°6.225 -999 -999 -999  
2001-05-28 10:00:10 51°26.681 3°6.215 -999 -999 -999  
2001-05-28 10:00:15 51°26.698 3°6.205 -999 -999 -999  
2001-05-28 10:00:20 51°26.715 3°6.193 -999 -999 -999  
2001-05-28 10:00:25 51°26.732 3°6.181 -999 -999 -999  
2001-05-28 10:00:30 51°26.749 3°6.168 -999 -999 -999  
2001-05-28 10:00:35 51°26.765 3°6.156 -999 -999 -999  
2001-05-28 10:00:40 51°26.782 3°6.143 -999 -999 -999  
2001-05-28 10:00:45 51°26.799 3°6.132 -999 -999 -999  
2001-05-28 10:00:50 51°26.816 3°6.12 -999 -999 -999  
2001-05-28 10:00:55 51°26.833 3°6.109 -999 -999 -999  
2001-05-28 10:01:00 51°26.85 3°6.098 -999 -999 -999  
2001-05-28 10:01:05 51°26.867 3°6.088 -999 -999 -999  
2001-05-28 10:01:10 51°26.884 3°6.078 -999 -999 -999  
2001-05-28 10:01:15 51°26.902 3°6.067 -999 -999 -999  
2001-05-28 10:01:20 51°26.92 3°6.057 -999 -999 -999  
2001-05-28 10:01:25 51°26.938 3°6.048 -999 -999 -999  
2001-05-28 10:01:30 51°26.956 3°6.038 -999 -999 -999  
2001-05-28 10:01:35 51°26.974 3°6.029 -999 -999 -999  
2001-05-28 10:01:40 51°26.991 3°6.019 -999 -999 -999  
2001-05-28 10:01:45 51°27.009 3°6.011 -999 -999 -999  
2001-05-28 10:01:50 51°27.027 3°6.003 -999 -999 -999  
2001-05-28 10:01:55 51°27.045 3°5.996 -999 -999 -999  
2001-05-28 10:02:00 51°27.064 3°5.991 -999 -999 -999  
2001-05-28 10:02:05 51°27.082 3°5.984 -999 -999 -999  
2001-05-28 10:02:10 51°27.1 3°5.978 -999 -999 -999  
2001-05-28 10:02:15 51°27.118 3°5.972 -999 -999 -999  
2001-05-28 10:02:20 51°27.136 3°5.966 -999 -999 -999  
2001-05-28 10:02:25 51°27.154 3°5.96 -999 -999 -999  
2001-05-28 10:02:30 51°27.172 3°5.954 -999 -999 -999  
2001-05-28 10:02:35 51°27.19 3°5.948 -999 -999 -999  
2001-05-28 10:02:40 51°27.208 3°5.942 -999 -999 -999  
2001-05-28 10:02:45 51°27.227 3°5.937 -999 -999 -999  
2001-05-28 10:02:50 51°27.245 3°5.931 -999 -999 -999  
2001-05-28 10:02:55 51°27.263 3°5.924 -999 -999 -999  
2001-05-28 10:03:00 51°27.281 3°5.917 -999 -999 -999  
2001-05-28 10:03:05 51°27.3 3°5.911 -999 -999 -999  
2001-05-28 10:03:10 51°27.318 3°5.903 -999 -999 -999  
2001-05-28 10:03:15 51°27.336 3°5.897 -999 -999 -999  
2001-05-28 10:03:20 51°27.354 3°5.89 -999 -999 -999  
2001-05-28 10:03:25 51°27.372 3°5.883 -999 -999 -999  
2001-05-28 10:03:30 51°27.39 3°5.877 -999 -999 -999  
2001-05-28 10:03:35 51°27.409 3°5.872 -999 -999 -999  
2001-05-28 10:03:40 51°27.427 3°5.867 -999 -999 -999  
2001-05-28 10:03:45 51°27.445 3°5.863 -999 -999 -999  
2001-05-28 10:03:50 51°27.464 3°5.86 -999 -999 -999  
2001-05-28 10:03:55 51°27.482 3°5.858 -999 -999 -999  
2001-05-28 10:04:00 51°27.5 3°5.854 -999 -999 -999  
2001-05-28 10:04:05 51°27.519 3°5.851 -999 -999 -999  
2001-05-28 10:04:10 51°27.538 3°5.847 -999 -999 -999  
2001-05-28 10:04:15 51°27.556 3°5.845 -999 -999 -999  
2001-05-28 10:04:20 51°27.576 3°5.843 -999 -999 -999  
2001-05-28 10:04:25 51°27.596 3°5.84 -999 -999 -999  
2001-05-28 10:04:30 51°27.614 3°5.835 -999 -999 -999  
2001-05-28 10:04:35 51°27.632 3°5.831 -999 -999 -999  
2001-05-28 10:04:40 51°27.65 3°5.826 -999 -999 -999  
2001-05-28 10:04:45 51°27.668 3°5.822 -999 -999 -999  
2001-05-28 10:04:50 51°27.686 3°5.82 -999 -999 -999  
2001-05-28 10:04:55 51°27.704 3°5.819 -999 -999 -999  
2001-05-28 10:05:00 51°27.722 3°5.819 -999 -999 -999  
2001-05-28 10:05:05 51°27.74 3°5.823 -999 -999 -999  
2001-05-28 10:05:10 51°27.759 3°5.828 -999 -999 -999  
2001-05-28 10:05:15 51°27.777 3°5.833 -999 -999 -999  
2001-05-28 10:05:20 51°27.794 3°5.841 -999 -999 -999  
2001-05-28 10:05:25 51°27.811 3°5.853 -999 -999 -999  
2001-05-28 10:05:30 51°27.828 3°5.864 -999 -999 -999  
2001-05-28 10:05:35 51°27.842 3°5.88 -999 -999 -999  
2001-05-28 10:05:40 51°27.857 3°5.896 -999 -999 -999  
2001-05-28 10:05:45 51°27.868 3°5.917 -999 -999 -999  
2001-05-28 10:05:50 51°27.88 3°5.938 -999 -999 -999  
2001-05-28 10:05:55 51°27.888 3°5.961 -999 -999 -999  
2001-05-28 10:06:00 51°27.897 3°5.985 -999 -999 -999  
2001-05-28 10:06:05 51°27.904 3°6.01 -999 -999 -999  
2001-05-28 10:06:10 51°27.911 3°6.036 -999 -999 -999  
2001-05-28 10:06:15 51°27.916 3°6.062 -999 -999 -999  
2001-05-28 10:06:20 51°27.92 3°6.09 -999 -999 -999  
2001-05-28 10:06:25 51°27.924 3°6.117 -999 -999 -999  
2001-05-28 10:06:30 51°27.929 3°6.144 -999 -999 -999  
2001-05-28 10:06:35 51°27.934 3°6.171 -999 -999 -999  
2001-05-28 10:06:40 51°27.939 3°6.199 -999 -999 -999  
2001-05-28 10:06:45 51°27.944 3°6.226 -999 -999 -999  
2001-05-28 10:06:50 51°27.95 3°6.253 -999 -999 -999  
2001-05-28 10:06:55 51°27.956 3°6.279 -999 -999 -999  
2001-05-28 10:07:00 51°27.962 3°6.305 -999 -999 -999  
2001-05-28 10:07:05 51°27.967 3°6.331 -999 -999 -999  
2001-05-28 10:07:10 51°27.974 3°6.357 -999 -999 -999  
2001-05-28 10:07:15 51°27.98 3°6.384 -999 -999 -999  
2001-05-28 10:07:20 51°27.986 3°6.409 -999 -999 -999  
2001-05-28 10:07:25 51°27.99 3°6.436 -999 -999 -999  
2001-05-28 10:07:30 51°27.995 3°6.463 -999 -999 -999  
2001-05-28 10:07:35 51°28 3°6.49 -999 -999 -999  
2001-05-28 10:07:40 51°28.005 3°6.517 -999 -999 -999  
2001-05-28 10:07:45 51°28.01 3°6.544 -999 -999 -999  
2001-05-28 10:07:50 51°28.015 3°6.571 -999 -999 -999  
2001-05-28 10:07:55 51°28.021 3°6.598 -999 -999 -999  
2001-05-28 10:08:00 51°28.027 3°6.625 -999 -999 -999  
2001-05-28 10:08:05 51°28.033 3°6.651 -999 -999 -999  
2001-05-28 10:08:10 51°28.038 3°6.677 -999 -999 -999  
2001-05-28 10:08:15 51°28.044 3°6.704 -999 -999 -999  
2001-05-28 10:08:20 51°28.049 3°6.731 -999 -999 -999  
2001-05-28 10:08:25 51°28.056 3°6.757 -999 -999 -999  
2001-05-28 10:08:30 51°28.062 3°6.784 -999 -999 -999  
2001-05-28 10:08:35 51°28.068 3°6.811 -999 -999 -999  
2001-05-28 10:08:40 51°28.073 3°6.838 -999 -999 -999  
2001-05-28 10:08:45 51°28.078 3°6.866 -999 -999 -999  
2001-05-28 10:08:50 51°28.083 3°6.893 -999 -999 -999  
2001-05-28 10:08:55 51°28.09 3°6.92 -999 -999 -999  
2001-05-28 10:09:00 51°28.097 3°6.947 -999 -999 -999  
2001-05-28 10:09:05 51°28.104 3°6.972 -999 -999 -999  
2001-05-28 10:09:10 51°28.109 3°6.999 -999 -999 -999  
2001-05-28 10:09:15 51°28.114 3°7.026 -999 -999 -999  
2001-05-28 10:09:20 51°28.12 3°7.054 -999 -999 -999  
2001-05-28 10:09:25 51°28.127 3°7.081 -999 -999 -999  
2001-05-28 10:09:30 51°28.133 3°7.108 -999 -999 -999  
2001-05-28 10:09:35 51°28.139 3°7.135 -999 -999 -999  
2001-05-28 10:09:40 51°28.146 3°7.163 -999 -999 -999  
2001-05-28 10:09:45 51°28.153 3°7.19 -999 -999 -999  
2001-05-28 10:09:50 51°28.16 3°7.217 -999 -999 -999  
2001-05-28 10:09:55 51°28.168 3°7.244 -999 -999 -999  
2001-05-28 10:10:00 51°28.175 3°7.271 -999 -999 -999  
2001-05-28 10:10:05 51°28.182 3°7.297 -999 -999 -999  
2001-05-28 10:10:10 51°28.191 3°7.323 -999 -999 -999  
2001-05-28 10:10:15 51°28.199 3°7.348 -999 -999 -999  
2001-05-28 10:10:20 51°28.208 3°7.373 -999 -999 -999  
2001-05-28 10:10:25 51°28.216 3°7.399 -999 -999 -999  
2001-05-28 10:10:30 51°28.224 3°7.426 -999 -999 -999  
2001-05-28 10:10:35 51°28.231 3°7.454 -999 -999 -999  
2001-05-28 10:10:40 51°28.237 3°7.481 -999 -999 -999  
2001-05-28 10:10:45 51°28.244 3°7.508 -999 -999 -999  
2001-05-28 10:10:50 51°28.252 3°7.535 -999 -999 -999  
2001-05-28 10:10:55 51°28.259 3°7.561 -999 -999 -999  
2001-05-28 10:11:00 51°28.266 3°7.588 -999 -999 -999  
2001-05-28 10:11:05 51°28.274 3°7.615 -999 -999 -999  
2001-05-28 10:11:10 51°28.282 3°7.642 -999 -999 -999  
2001-05-28 10:11:15 51°28.29 3°7.668 -999 -999 -999  
2001-05-28 10:11:20 51°28.298 3°7.695 -999 -999 -999  
2001-05-28 10:11:25 51°28.305 3°7.721 -999 -999 -999  
2001-05-28 10:11:30 51°28.313 3°7.747 -999 -999 -999  
2001-05-28 10:11:35 51°28.32 3°7.773 -999 -999 -999  
2001-05-28 10:11:40 51°28.328 3°7.798 -999 -999 -999  
2001-05-28 10:11:45 51°28.336 3°7.824 -999 -999 -999  
2001-05-28 10:11:50 51°28.343 3°7.85 -999 -999 -999  
2001-05-28 10:11:55 51°28.351 3°7.876 -999 -999 -999  
2001-05-28 10:12:00 51°28.359 3°7.902 -999 -999 -999  
2001-05-28 10:12:05 51°28.367 3°7.928 -999 -999 -999  
2001-05-28 10:12:10 51°28.373 3°7.955 -999 -999 -999  
2001-05-28 10:12:15 51°28.38 3°7.982 -999 -999 -999  
2001-05-28 10:12:20 51°28.387 3°8.01 -999 -999 -999  
2001-05-28 10:12:25 51°28.394 3°8.037 -999 -999 -999  
2001-05-28 10:12:30 51°28.4 3°8.064 -999 -999 -999  
2001-05-28 10:12:35 51°28.406 3°8.092 -999 -999 -999  
2001-05-28 10:12:40 51°28.411 3°8.119 -999 -999 -999  
2001-05-28 10:12:45 51°28.416 3°8.147 -999 -999 -999  
2001-05-28 10:12:50 51°28.423 3°8.174 -999 -999 -999  
2001-05-28 10:12:55 51°28.429 3°8.201 -999 -999 -999  
2001-05-28 10:13:00 51°28.434 3°8.228 -999 -999 -999  
2001-05-28 10:13:05 51°28.44 3°8.256 -999 -999 -999  
2001-05-28 10:13:10 51°28.446 3°8.283 -999 -999 -999  
2001-05-28 10:13:15 51°28.452 3°8.31 -999 -999 -999  
2001-05-28 10:13:20 51°28.458 3°8.337 -999 -999 -999  
2001-05-28 10:13:25 51°28.465 3°8.363 -999 -999 -999  
2001-05-28 10:13:30 51°28.471 3°8.39 -999 -999 -999  
2001-05-28 10:13:35 51°28.478 3°8.417 -999 -999 -999  
2001-05-28 10:13:40 51°28.485 3°8.443 -999 -999 -999  
2001-05-28 10:13:45 51°28.492 3°8.469 -999 -999 -999  
2001-05-28 10:13:50 51°28.498 3°8.495 -999 -999 -999  
2001-05-28 10:13:55 51°28.504 3°8.522 -999 -999 -999  
2001-05-28 10:14:00 51°28.509 3°8.549 -999 -999 -999  
2001-05-28 10:14:05 51°28.515 3°8.576 -999 -999 -999  
2001-05-28 10:14:10 51°28.522 3°8.603 -999 -999 -999  
2001-05-28 10:14:15 51°28.528 3°8.63 -999 -999 -999  
2001-05-28 10:14:20 51°28.534 3°8.657 -999 -999 -999  
2001-05-28 10:14:25 51°28.539 3°8.685 -999 -999 -999  
2001-05-28 10:14:30 51°28.545 3°8.713 -999 -999 -999  
2001-05-28 10:14:35 51°28.551 3°8.741 -999 -999 -999  
2001-05-28 10:14:40 51°28.558 3°8.769 -999 -999 -999  
2001-05-28 10:14:45 51°28.564 3°8.796 -999 -999 -999  
2001-05-28 10:14:50 51°28.571 3°8.824 -999 -999 -999  
2001-05-28 10:14:55 51°28.577 3°8.853 -999 -999 -999  
2001-05-28 10:15:00 51°28.583 3°8.88 -999 -999 -999  
2001-05-28 10:15:05 51°28.588 3°8.907 -999 -999 -999  
2001-05-28 10:15:10 51°28.595 3°8.935 -999 -999 -999  
2001-05-28 10:15:15 51°28.602 3°8.961 -999 -999 -999  
2001-05-28 10:15:20 51°28.61 3°8.987 -999 -999 -999  
2001-05-28 10:15:25 51°28.619 3°9.012 -999 -999 -999  
2001-05-28 10:15:30 51°28.629 3°9.037 -999 -999 -999  
2001-05-28 10:15:35 51°28.64 3°9.061 -999 -999 -999  
2001-05-28 10:15:40 51°28.65 3°9.084 -999 -999 -999  
2001-05-28 10:15:45 51°28.661 3°9.109 -999 -999 -999  
2001-05-28 10:15:50 51°28.672 3°9.132 -999 -999 -999  
2001-05-28 10:15:55 51°28.683 3°9.154 -999 -999 -999  
2001-05-28 10:16:00 51°28.694 3°9.177 -999 -999 -999  
2001-05-28 10:16:05 51°28.706 3°9.199 -999 -999 -999  
2001-05-28 10:16:10 51°28.719 3°9.22 -999 -999 -999  
2001-05-28 10:16:15 51°28.734 3°9.24 -999 -999 -999  
2001-05-28 10:16:20 51°28.749 3°9.257 -999 -999 -999  
2001-05-28 10:16:25 51°28.764 3°9.273 -999 -999 -999  
2001-05-28 10:16:30 51°28.781 3°9.288 -999 -999 -999  
2001-05-28 10:16:35 51°28.798 3°9.302 -999 -999 -999  
2001-05-28 10:16:40 51°28.814 3°9.315 -999 -999 -999  
2001-05-28 10:16:45 51°28.831 3°9.327 -999 -999 -999  
2001-05-28 10:16:50 51°28.848 3°9.337 -999 -999 -999  
2001-05-28 10:16:55 51°28.865 3°9.345 -999 -999 -999  
2001-05-28 10:17:00 51°28.882 3°9.353 -999 -999 -999  
2001-05-28 10:17:05 51°28.9 3°9.358 -999 -999 -999  
2001-05-28 10:17:10 51°28.918 3°9.361 -999 -999 -999  
2001-05-28 10:17:15 51°28.936 3°9.364 -999 -999 -999  
2001-05-28 10:17:20 51°28.954 3°9.364 -999 -999 -999  
2001-05-28 10:17:25 51°28.972 3°9.363 -999 -999 -999  
2001-05-28 10:17:30 51°28.99 3°9.36 -999 -999 -999  
2001-05-28 10:17:35 51°29.008 3°9.354 -999 -999 -999  
2001-05-28 10:17:40 51°29.025 3°9.347 -999 -999 -999  
2001-05-28 10:17:45 51°29.042 3°9.338 -999 -999 -999  
2001-05-28 10:17:50 51°29.059 3°9.327 -999 -999 -999  
2001-05-28 10:17:55 51°29.074 3°9.314 -999 -999 -999  
2001-05-28 10:18:00 51°29.09 3°9.301 -999 -999 -999  
2001-05-28 10:18:05 51°29.105 3°9.285 -999 -999 -999  
2001-05-28 10:18:10 51°29.119 3°9.269 -999 -999 -999  
2001-05-28 10:18:15 51°29.134 3°9.251 -999 -999 -999  
2001-05-28 10:18:20 51°29.147 3°9.232 -999 -999 -999  
2001-05-28 10:18:25 51°29.158 3°9.211 -999 -999 -999  
2001-05-28 10:18:30 51°29.17 3°9.19 -999 -999 -999  
2001-05-28 10:18:35 51°29.181 3°9.167 -999 -999 -999  
2001-05-28 10:18:40 51°29.192 3°9.144 -999 -999 -999  
2001-05-28 10:18:45 51°29.202 3°9.12 -999 -999 -999  
2001-05-28 10:18:50 51°29.213 3°9.097 -999 -999 -999  
2001-05-28 10:18:55 51°29.224 3°9.075 -999 -999 -999  
2001-05-28 10:19:00 51°29.236 3°9.052 -999 -999 -999  
2001-05-28 10:19:05 51°29.248 3°9.03 -999 -999 -999  
2001-05-28 10:19:10 51°29.26 3°9.007 -999 -999 -999  
2001-05-28 10:19:15 51°29.273 3°8.985 -999 -999 -999  
2001-05-28 10:19:20 51°29.286 3°8.963 -999 -999 -999  
2001-05-28 10:19:25 51°29.297 3°8.941 -999 -999 -999  
2001-05-28 10:19:30 51°29.309 3°8.918 -999 -999 -999  
2001-05-28 10:19:35 51°29.321 3°8.896 -999 -999 -999  
2001-05-28 10:19:40 51°29.333 3°8.873 -999 -999 -999  
2001-05-28 10:19:45 51°29.344 3°8.85 -999 -999 -999  
2001-05-28 10:19:50 51°29.355 3°8.826 -999 -999 -999  
2001-05-28 10:19:55 51°29.366 3°8.803 -999 -999 -999  
2001-05-28 10:20:00 51°29.377 3°8.779 -999 -999 -999  
2001-05-28 10:20:05 51°29.388 3°8.755 -999 -999 -999  
2001-05-28 10:20:10 51°29.399 3°8.732 -999 -999 -999  
2001-05-28 10:20:15 51°29.409 3°8.708 -999 -999 -999  
2001-05-28 10:20:20 51°29.42 3°8.684 -999 -999 -999  
2001-05-28 10:20:25 51°29.432 3°8.659 -999 -999 -999  
2001-05-28 10:20:30 51°29.444 3°8.635 -999 -999 -999  
2001-05-28 10:20:35 51°29.455 3°8.612 -999 -999 -999  
2001-05-28 10:20:40 51°29.465 3°8.588 -999 -999 -999  
2001-05-28 10:20:45 51°29.476 3°8.563 -999 -999 -999  
2001-05-28 10:20:50 51°29.486 3°8.538 -999 -999 -999  
2001-05-28 10:20:55 51°29.497 3°8.515 -999 -999 -999  
2001-05-28 10:21:00 51°29.508 3°8.49 -999 -999 -999  
2001-05-28 10:21:05 51°29.519 3°8.466 -999 -999 -999  
2001-05-28 10:21:10 51°29.529 3°8.443 -999 -999 -999  
2001-05-28 10:21:15 51°29.541 3°8.419 -999 -999 -999  
2001-05-28 10:21:20 51°29.552 3°8.395 -999 -999 -999  
2001-05-28 10:21:25 51°29.563 3°8.37 -999 -999 -999  
2001-05-28 10:21:30 51°29.573 3°8.345 -999 -999 -999  
2001-05-28 10:21:35 51°29.583 3°8.32 -999 -999 -999  
2001-05-28 10:21:40 51°29.593 3°8.295 -999 -999 -999  
2001-05-28 10:21:45 51°29.603 3°8.268 -999 -999 -999  
2001-05-28 10:21:50 51°29.611 3°8.244 -999 -999 -999  
2001-05-28 10:21:55 51°29.62 3°8.219 -999 -999 -999  
2001-05-28 10:22:00 51°29.63 3°8.194 -999 -999 -999  
2001-05-28 10:22:05 51°29.64 3°8.17 -999 -999 -999  
2001-05-28 10:22:10 51°29.65 3°8.145 -999 -999 -999  
2001-05-28 10:22:15 51°29.659 3°8.121 -999 -999 -999  
2001-05-28 10:22:20 51°29.669 3°8.096 -999 -999 -999  
2001-05-28 10:22:25 51°29.678 3°8.071 -999 -999 -999  
2001-05-28 10:22:30 51°29.687 3°8.045 -999 -999 -999  
2001-05-28 10:22:35 51°29.696 3°8.019 -999 -999 -999  
2001-05-28 10:22:40 51°29.706 3°7.993 -999 -999 -999  
2001-05-28 10:22:45 51°29.716 3°7.968 -999 -999 -999  
2001-05-28 10:22:50 51°29.725 3°7.943 -999 -999 -999  
2001-05-28 10:22:55 51°29.734 3°7.917 -999 -999 -999  
2001-05-28 10:23:00 51°29.743 3°7.89 -999 -999 -999  
2001-05-28 10:23:05 51°29.752 3°7.865 -999 -999 -999  
2001-05-28 10:23:10 51°29.76 3°7.838 -999 -999 -999  
2001-05-28 10:23:15 51°29.769 3°7.812 -999 -999 -999  
2001-05-28 10:23:20 51°29.777 3°7.785 -999 -999 -999  
2001-05-28 10:23:25 51°29.786 3°7.759 -999 -999 -999  
2001-05-28 10:23:30 51°29.794 3°7.733 -999 -999 -999  
2001-05-28 10:23:35 51°29.804 3°7.707 -999 -999 -999  
2001-05-28 10:23:40 51°29.813 3°7.682 -999 -999 -999  
2001-05-28 10:23:45 51°29.823 3°7.656 -999 -999 -999  
2001-05-28 10:23:50 51°29.832 3°7.63 -999 -999 -999  
2001-05-28 10:23:55 51°29.841 3°7.605 -999 -999 -999  
2001-05-28 10:24:00 51°29.85 3°7.579 -999 -999 -999  
2001-05-28 10:24:05 51°29.858 3°7.553 -999 -999 -999  
2001-05-28 10:24:10 51°29.866 3°7.528 -999 -999 -999  
2001-05-28 10:24:15 51°29.875 3°7.502 -999 -999 -999  
2001-05-28 10:24:20 51°29.884 3°7.475 -999 -999 -999  
2001-05-28 10:24:25 51°29.893 3°7.449 -999 -999 -999  
2001-05-28 10:24:30 51°29.903 3°7.423 -999 -999 -999  
2001-05-28 10:24:35 51°29.912 3°7.397 -999 -999 -999  
2001-05-28 10:24:40 51°29.92 3°7.371 -999 -999 -999  
2001-05-28 10:24:45 51°29.929 3°7.344 -999 -999 -999  
2001-05-28 10:24:50 51°29.937 3°7.318 -999 -999 -999  
2001-05-28 10:24:55 51°29.946 3°7.291 -999 -999 -999  
2001-05-28 10:25:00 51°29.954 3°7.265 -999 -999 -999  
2001-05-28 10:25:05 51°29.964 3°7.239 -999 -999 -999  
2001-05-28 10:25:10 51°29.973 3°7.213 -999 -999 -999  
2001-05-28 10:25:15 51°29.983 3°7.187 -999 -999 -999  
2001-05-28 10:25:20 51°29.992 3°7.16 -999 -999 -999  
2001-05-28 10:25:25 51°30.001 3°7.134 -999 -999 -999  
2001-05-28 10:25:30 51°30.008 3°7.107 -999 -999 -999  
2001-05-28 10:25:35 51°30.015 3°7.08 -999 -999 -999  
2001-05-28 10:25:40 51°30.023 3°7.053 -999 -999 -999  
2001-05-28 10:25:45 51°30.032 3°7.026 -999 -999 -999  
2001-05-28 10:25:50 51°30.041 3°7 -999 -999 -999  
2001-05-28 10:25:55 51°30.049 3°6.973 -999 -999 -999  
2001-05-28 10:26:00 51°30.058 3°6.947 -999 -999 -999  
2001-05-28 10:26:05 51°30.066 3°6.92 -999 -999 -999  
2001-05-28 10:26:10 51°30.074 3°6.894 -999 -999 -999  
2001-05-28 10:26:15 51°30.083 3°6.868 -999 -999 -999  
2001-05-28 10:26:20 51°30.092 3°6.842 -999 -999 -999  
2001-05-28 10:26:25 51°30.102 3°6.817 -999 -999 -999  
2001-05-28 10:26:30 51°30.11 3°6.791 -999 -999 -999  
2001-05-28 10:26:35 51°30.119 3°6.765 -999 -999 -999  
2001-05-28 10:26:40 51°30.126 3°6.739 -999 -999 -999  
2001-05-28 10:26:45 51°30.136 3°6.713 -999 -999 -999  
2001-05-28 10:26:50 51°30.145 3°6.687 -999 -999 -999  
2001-05-28 10:26:55 51°30.153 3°6.66 -999 -999 -999  
2001-05-28 10:27:00 51°30.161 3°6.633 -999 -999 -999  
2001-05-28 10:27:05 51°30.168 3°6.605 -999 -999 -999  
2001-05-28 10:27:10 51°30.175 3°6.577 -999 -999 -999  
2001-05-28 10:27:15 51°30.183 3°6.55 -999 -999 -999  
2001-05-28 10:27:20 51°30.192 3°6.524 -999 -999 -999  
2001-05-28 10:27:25 51°30.201 3°6.5 -999 -999 -999  
2001-05-28 10:27:30 51°30.21 3°6.474 -999 -999 -999  
2001-05-28 10:27:35 51°30.219 3°6.448 -999 -999 -999  
2001-05-28 10:27:40 51°30.226 3°6.422 -999 -999 -999  
2001-05-28 10:27:45 51°30.234 3°6.395 -999 -999 -999  
2001-05-28 10:27:50 51°30.242 3°6.368 -999 -999 -999  
2001-05-28 10:27:55 51°30.25 3°6.342 -999 -999 -999  
2001-05-28 10:28:00 51°30.258 3°6.315 -999 -999 -999  
2001-05-28 10:28:05 51°30.265 3°6.288 -999 -999 -999  
2001-05-28 10:28:10 51°30.274 3°6.261 -999 -999 -999  
2001-05-28 10:28:16 51°30.284 3°6.228 -999 -999 -999  
2001-05-28 10:28:21 51°30.292 3°6.201 -999 -999 -999  
2001-05-28 10:28:26 51°30.301 3°6.174 -999 -999 -999  
2001-05-28 10:28:31 51°30.31 3°6.147 -999 -999 -999  
2001-05-28 10:28:36 51°30.319 3°6.119 -999 -999 -999  
2001-05-28 10:28:41 51°30.327 3°6.094 -999 -999 -999  
2001-05-28 10:28:46 51°30.336 3°6.068 -999 -999 -999  
2001-05-28 10:28:51 51°30.344 3°6.042 -999 -999 -999  
2001-05-28 10:28:56 51°30.352 3°6.016 -999 -999 -999  
2001-05-28 10:29:01 51°30.36 3°5.989 -999 -999 -999  
2001-05-28 10:29:06 51°30.368 3°5.961 -999 -999 -999  
2001-05-28 10:29:10 51°30.374 3°5.939 -999 -999 -999  
2001-05-28 10:29:15 51°30.382 3°5.912 -999 -999 -999  
2001-05-28 10:29:20 51°30.391 3°5.885 -999 -999 -999  
2001-05-28 10:29:25 51°30.399 3°5.859 -999 -999 -999  
2001-05-28 10:29:30 51°30.408 3°5.832 -999 -999 -999  
2001-05-28 10:29:35 51°30.416 3°5.804 -999 -999 -999  
2001-05-28 10:29:40 51°30.424 3°5.777 -999 -999 -999  
2001-05-28 10:29:45 51°30.433 3°5.751 -999 -999 -999  
2001-05-28 10:29:50 51°30.441 3°5.726 -999 -999 -999  
2001-05-28 10:29:55 51°30.45 3°5.699 -999 -999 -999  
2001-05-28 10:30:00 51°30.459 3°5.671 -999 -999 -999  
2001-05-28 10:30:05 51°30.467 3°5.643 -999 -999 -999  
2001-05-28 10:30:10 51°30.475 3°5.616 -999 -999 -999  
2001-05-28 10:30:15 51°30.483 3°5.59 -999 -999 -999  
2001-05-28 10:30:20 51°30.491 3°5.563 -999 -999 -999  
2001-05-28 10:30:25 51°30.5 3°5.535 -999 -999 -999  
2001-05-28 10:30:30 51°30.508 3°5.509 -999 -999 -999  
2001-05-28 10:30:35 51°30.517 3°5.482 -999 -999 -999  
2001-05-28 10:30:40 51°30.525 3°5.456 -999 -999 -999  
2001-05-28 10:30:45 51°30.534 3°5.43 -999 -999 -999  
2001-05-28 10:30:50 51°30.542 3°5.402 -999 -999 -999  
2001-05-28 10:30:55 51°30.55 3°5.375 -999 -999 -999  
2001-05-28 10:31:00 51°30.559 3°5.348 -999 -999 -999  
2001-05-28 10:31:05 51°30.567 3°5.321 -999 -999 -999  
2001-05-28 10:31:10 51°30.576 3°5.295 -999 -999 -999  
2001-05-28 10:31:15 51°30.585 3°5.269 -999 -999 -999  
2001-05-28 10:31:20 51°30.594 3°5.241 -999 -999 -999  
2001-05-28 10:31:25 51°30.601 3°5.215 -999 -999 -999  
2001-05-28 10:31:30 51°30.61 3°5.188 -999 -999 -999  
2001-05-28 10:31:35 51°30.618 3°5.161 -999 -999 -999  
2001-05-28 10:31:40 51°30.626 3°5.133 -999 -999 -999  
2001-05-28 10:31:45 51°30.635 3°5.106 -999 -999 -999  
2001-05-28 10:31:50 51°30.644 3°5.08 -999 -999 -999  
2001-05-28 10:31:55 51°30.653 3°5.053 -999 -999 -999  
2001-05-28 10:32:00 51°30.662 3°5.027 -999 -999 -999  
2001-05-28 10:32:05 51°30.671 3°5 -999 -999 -999  
2001-05-28 10:32:10 51°30.68 3°4.972 -999 -999 -999  
2001-05-28 10:32:15 51°30.688 3°4.946 -999 -999 -999  
2001-05-28 10:32:20 51°30.697 3°4.918 -999 -999 -999  
2001-05-28 10:32:25 51°30.705 3°4.892 -999 -999 -999  
2001-05-28 10:32:30 51°30.714 3°4.865 -999 -999 -999  
2001-05-28 10:32:36 51°30.723 3°4.832 -999 -999 -999  
2001-05-28 10:32:41 51°30.731 3°4.805 -999 -999 -999  
2001-05-28 10:32:46 51°30.74 3°4.778 -999 -999 -999  
2001-05-28 10:32:51 51°30.748 3°4.751 -999 -999 -999  
2001-05-28 10:32:56 51°30.756 3°4.724 -999 -999 -999  
2001-05-28 10:33:01 51°30.764 3°4.696 -999 -999 -999  
2001-05-28 10:33:06 51°30.772 3°4.669 -999 -999 -999  
2001-05-28 10:33:11 51°30.78 3°4.643 -999 -999 -999  
2001-05-28 10:33:16 51°30.789 3°4.617 -999 -999 -999  
2001-05-28 10:33:21 51°30.798 3°4.59 -999 -999 -999  
2001-05-28 10:33:26 51°30.807 3°4.563 -999 -999 -999  
2001-05-28 10:33:31 51°30.815 3°4.536 -999 -999 -999  
2001-05-28 10:33:36 51°30.824 3°4.509 -999 -999 -999  
2001-05-28 10:33:41 51°30.832 3°4.483 -999 -999 -999  
2001-05-28 10:33:46 51°30.841 3°4.456 -999 -999 -999  
2001-05-28 10:33:51 51°30.85 3°4.429 -999 -999 -999  
2001-05-28 10:33:56 51°30.859 3°4.402 -999 -999 -999  
2001-05-28 10:34:01 51°30.868 3°4.376 -999 -999 -999  
2001-05-28 10:34:06 51°30.876 3°4.348 -999 -999 -999  
2001-05-28 10:34:11 51°30.884 3°4.321 -999 -999 -999  
2001-05-28 10:34:16 51°30.892 3°4.294 -999 -999 -999  
2001-05-28 10:34:21 51°30.901 3°4.267 -999 -999 -999  
2001-05-28 10:34:26 51°30.909 3°4.239 -999 -999 -999  
2001-05-28 10:34:31 51°30.917 3°4.213 -999 -999 -999  
2001-05-28 10:34:36 51°30.926 3°4.185 -999 -999 -999  
2001-05-28 10:34:41 51°30.934 3°4.159 -999 -999 -999  
2001-05-28 10:34:46 51°30.943 3°4.133 -999 -999 -999  
2001-05-28 10:34:51 51°30.952 3°4.107 -999 -999 -999  
2001-05-28 10:34:56 51°30.962 3°4.081 -999 -999 -999  
2001-05-28 10:35:01 51°30.972 3°4.055 -999 -999 -999  
2001-05-28 10:35:06 51°30.981 3°4.029 -999 -999 -999  
2001-05-28 10:35:11 51°30.989 3°4.002 -999 -999 -999  
2001-05-28 10:35:16 51°30.998 3°3.976 -999 -999 -999  
2001-05-28 10:35:21 51°31.007 3°3.95 -999 -999 -999  
2001-05-28 10:35:26 51°31.017 3°3.925 -999 -999 -999  
2001-05-28 10:35:31 51°31.027 3°3.899 -999 -999 -999  
2001-05-28 10:35:36 51°31.036 3°3.873 -999 -999 -999  
2001-05-28 10:35:41 51°31.044 3°3.845 -999 -999 -999  
2001-05-28 10:35:46 51°31.052 3°3.818 -999 -999 -999  
2001-05-28 10:35:51 51°31.06 3°3.791 -999 -999 -999  
2001-05-28 10:35:56 51°31.069 3°3.765 -999 -999 -999  
2001-05-28 10:36:01 51°31.078 3°3.738 -999 -999 -999  
2001-05-28 10:36:06 51°31.087 3°3.712 -999 -999 -999  
2001-05-28 10:36:11 51°31.096 3°3.685 -999 -999 -999  
2001-05-28 10:36:16 51°31.105 3°3.66 -999 -999 -999  
2001-05-28 10:36:21 51°31.115 3°3.634 -999 -999 -999  
2001-05-28 10:36:26 51°31.126 3°3.609 -999 -999 -999  
2001-05-28 10:36:31 51°31.135 3°3.584 -999 -999 -999  
2001-05-28 10:36:36 51°31.145 3°3.558 -999 -999 -999  
2001-05-28 10:36:41 51°31.154 3°3.531 -999 -999 -999  
2001-05-28 10:36:46 51°31.163 3°3.504 -999 -999 -999  
2001-05-28 10:36:51 51°31.171 3°3.477 -999 -999 -999  
2001-05-28 10:36:56 51°31.179 3°3.45 -999 -999 -999  
2001-05-28 10:37:01 51°31.187 3°3.424 -999 -999 -999  
2001-05-28 10:37:06 51°31.196 3°3.397 -999 -999 -999  
2001-05-28 10:37:11 51°31.205 3°3.371 -999 -999 -999  
2001-05-28 10:37:16 51°31.213 3°3.344 -999 -999 -999  
2001-05-28 10:37:21 51°31.222 3°3.317 -999 -999 -999  
2001-05-28 10:37:26 51°31.23 3°3.291 -999 -999 -999  
2001-05-28 10:37:31 51°31.24 3°3.265 -999 -999 -999  
2001-05-28 10:37:36 51°31.248 3°3.238 -999 -999 -999  
2001-05-28 10:37:41 51°31.257 3°3.211 -999 -999 -999  
2001-05-28 10:37:46 51°31.265 3°3.184 -999 -999 -999  
2001-05-28 10:37:51 51°31.273 3°3.157 -999 -999 -999  
2001-05-28 10:37:56 51°31.282 3°3.13 -999 -999 -999  
2001-05-28 10:38:01 51°31.29 3°3.105 -999 -999 -999  
2001-05-28 10:38:06 51°31.299 3°3.078 -999 -999 -999  
2001-05-28 10:38:11 51°31.308 3°3.052 -999 -999 -999  
2001-05-28 10:38:16 51°31.317 3°3.025 -999 -999 -999  
2001-05-28 10:38:21 51°31.326 3°2.999 -999 -999 -999  
2001-05-28 10:38:26 51°31.335 3°2.972 -999 -999 -999  
2001-05-28 10:38:31 51°31.343 3°2.945 -999 -999 -999  
2001-05-28 10:38:36 51°31.352 3°2.919 -999 -999 -999  
2001-05-28 10:38:41 51°31.36 3°2.892 -999 -999 -999  
2001-05-28 10:38:46 51°31.369 3°2.865 -999 -999 -999  
2001-05-28 10:38:51 51°31.378 3°2.839 -999 -999 -999  
2001-05-28 10:38:56 51°31.386 3°2.812 -999 -999 -999  
2001-05-28 10:39:01 51°31.395 3°2.785 -999 -999 -999  
2001-05-28 10:39:06 51°31.403 3°2.758 -999 -999 -999  
2001-05-28 10:39:11 51°31.411 3°2.73 -999 -999 -999  
2001-05-28 10:39:16 51°31.419 3°2.703 -999 -999 -999  
2001-05-28 10:39:21 51°31.427 3°2.675 -999 -999 -999  
2001-05-28 10:39:26 51°31.435 3°2.647 -999 -999 -999  
2001-05-28 10:39:31 51°31.444 3°2.619 -999 -999 -999  
2001-05-28 10:39:36 51°31.452 3°2.591 -999 -999 -999  
2001-05-28 10:39:41 51°31.46 3°2.564 -999 -999 -999  
2001-05-28 10:39:46 51°31.469 3°2.536 -999 -999 -999  
2001-05-28 10:39:51 51°31.478 3°2.51 -999 -999 -999  
2001-05-28 10:39:56 51°31.487 3°2.484 -999 -999 -999  
2001-05-28 10:40:01 51°31.496 3°2.457 -999 -999 -999  
2001-05-28 10:40:06 51°31.504 3°2.429 -999 -999 -999  
2001-05-28 10:40:11 51°31.512 3°2.402 -999 -999 -999  
2001-05-28 10:40:16 51°31.52 3°2.374 -999 -999 -999  
2001-05-28 10:40:21 51°31.528 3°2.346 -999 -999 -999  
2001-05-28 10:40:26 51°31.537 3°2.319 -999 -999 -999  
2001-05-28 10:40:31 51°31.545 3°2.291 -999 -999 -999  
2001-05-28 10:40:36 51°31.554 3°2.263 -999 -999 -999  
2001-05-28 10:40:41 51°31.563 3°2.236 -999 -999 -999  
2001-05-28 10:40:46 51°31.571 3°2.208 -999 -999 -999  
2001-05-28 10:40:51 51°31.579 3°2.18 -999 -999 -999  
2001-05-28 10:40:56 51°31.588 3°2.153 -999 -999 -999  
2001-05-28 10:41:01 51°31.596 3°2.125 -999 -999 -999  
2001-05-28 10:41:06 51°31.604 3°2.098 -999 -999 -999  
2001-05-28 10:41:11 51°31.612 3°2.07 -999 -999 -999  
2001-05-28 10:41:16 51°31.62 3°2.041 -999 -999 -999  
2001-05-28 10:41:21 51°31.628 3°2.013 -999 -999 -999  
2001-05-28 10:41:26 51°31.635 3°1.984 -999 -999 -999  
2001-05-28 10:41:31 51°31.642 3°1.955 -999 -999 -999  
2001-05-28 10:41:36 51°31.649 3°1.927 -999 -999 -999  
2001-05-28 10:41:41 51°31.657 3°1.898 -999 -999 -999  
2001-05-28 10:41:46 51°31.665 3°1.871 -999 -999 -999  
2001-05-28 10:41:51 51°31.674 3°1.844 -999 -999 -999  
2001-05-28 10:41:56 51°31.683 3°1.817 -999 -999 -999  
2001-05-28 10:42:01 51°31.693 3°1.791 -999 -999 -999  
2001-05-28 10:42:06 51°31.702 3°1.764 -999 -999 -999  
2001-05-28 10:42:11 51°31.711 3°1.737 -999 -999 -999  
2001-05-28 10:42:16 51°31.72 3°1.71 -999 -999 -999  
2001-05-28 10:42:21 51°31.729 3°1.683 -999 -999 -999  
2001-05-28 10:42:26 51°31.737 3°1.655 -999 -999 -999  
2001-05-28 10:42:31 51°31.744 3°1.627 -999 -999 -999  
2001-05-28 10:42:36 51°31.751 3°1.598 -999 -999 -999  
2001-05-28 10:42:41 51°31.756 3°1.569 -999 -999 -999  
2001-05-28 10:42:46 51°31.761 3°1.539 -999 -999 -999  
2001-05-28 10:42:51 51°31.765 3°1.509 -999 -999 -999  
2001-05-28 10:42:55 51°31.767 3°1.484 -999 -999 -999  
2001-05-28 10:43:00 51°31.769 3°1.454 -999 -999 -999  
2001-05-28 10:43:05 51°31.769 3°1.425 -999 -999 -999  
2001-05-28 10:43:10 51°31.768 3°1.395 -999 -999 -999  
2001-05-28 10:43:15 51°31.764 3°1.366 -999 -999 -999  
2001-05-28 10:43:20 51°31.76 3°1.337 -999 -999 -999  
2001-05-28 10:43:25 51°31.755 3°1.308 -999 -999 -999  
2001-05-28 10:43:30 51°31.748 3°1.28 -999 -999 -999  
2001-05-28 10:43:35 51°31.741 3°1.251 -999 -999 -999  
2001-05-28 10:43:40 51°31.734 3°1.224 -999 -999 -999  
2001-05-28 10:43:45 51°31.727 3°1.196 -999 -999 -999  
2001-05-28 10:43:50 51°31.718 3°1.169 -999 -999 -999  
2001-05-28 10:43:55 51°31.71 3°1.142 -999 -999 -999  
2001-05-28 10:44:00 51°31.701 3°1.115 -999 -999 -999  
2001-05-28 10:44:05 51°31.692 3°1.088 -999 -999 -999  
2001-05-28 10:44:10 51°31.683 3°1.061 -999 -999 -999  
2001-05-28 10:44:15 51°31.675 3°1.034 -999 -999 -999  
2001-05-28 10:44:20 51°31.666 3°1.007 -999 -999 -999  
2001-05-28 10:44:25 51°31.657 3°0.98 -999 -999 -999  
2001-05-28 10:44:30 51°31.648 3°0.953 -999 -999 -999  
2001-05-28 10:44:35 51°31.639 3°0.927 -999 -999 -999  
2001-05-28 10:44:40 51°31.63 3°0.899 -999 -999 -999  
2001-05-28 10:44:45 51°31.623 3°0.872 -999 -999 -999  
2001-05-28 10:44:50 51°31.615 3°0.844 -999 -999 -999  
2001-05-28 10:44:55 51°31.606 3°0.816 -999 -999 -999  
2001-05-28 10:45:00 51°31.597 3°0.79 -999 -999 -999  
2001-05-28 10:45:05 51°31.587 3°0.764 -999 -999 -999  
2001-05-28 10:45:10 51°31.576 3°0.739 -999 -999 -999  
2001-05-28 10:45:15 51°31.565 3°0.714 -999 -999 -999  
2001-05-28 10:45:20 51°31.554 3°0.69 -999 -999 -999  
2001-05-28 10:45:25 51°31.543 3°0.665 -999 -999 -999  
2001-05-28 10:45:30 51°31.531 3°0.64 -999 -999 -999  
2001-05-28 10:45:35 51°31.52 3°0.614 -999 -999 -999  
2001-05-28 10:45:40 51°31.509 3°0.588 -999 -999 -999  
2001-05-28 10:45:45 51°31.499 3°0.561 -999 -999 -999  
2001-05-28 10:45:50 51°31.49 3°0.534 -999 -999 -999  
2001-05-28 10:45:55 51°31.48 3°0.507 -999 -999 -999  
2001-05-28 10:46:00 51°31.471 3°0.482 -999 -999 -999  
2001-05-28 10:46:05 51°31.461 3°0.454 -999 -999 -999  
2001-05-28 10:46:10 51°31.451 3°0.428 -999 -999 -999  
2001-05-28 10:46:15 51°31.44 3°0.402 -999 -999 -999  
2001-05-28 10:46:20 51°31.428 3°0.376 -999 -999 -999  
2001-05-28 10:46:25 51°31.417 3°0.35 -999 -999 -999  
2001-05-28 10:46:30 51°31.405 3°0.325 -999 -999 -999  
2001-05-28 10:46:35 51°31.393 3°0.299 -999 -999 -999  
2001-05-28 10:46:40 51°31.382 3°0.274 -999 -999 -999  
2001-05-28 10:46:45 51°31.37 3°0.249 -999 -999 -999  
2001-05-28 10:46:50 51°31.358 3°0.225 -999 -999 -999  
2001-05-28 10:46:55 51°31.346 3°0.2 -999 -999 -999  
2001-05-28 10:47:00 51°31.334 3°0.175 -999 -999 -999  
2001-05-28 10:47:05 51°31.322 3°0.151 -999 -999 -999  
2001-05-28 10:47:10 51°31.31 3°0.128 -999 -999 -999  
2001-05-28 10:47:15 51°31.297 3°0.104 -999 -999 -999  
2001-05-28 10:47:20 51°31.284 3°0.081 -999 -999 -999  
2001-05-28 10:47:25 51°31.271 3°0.058 -999 -999 -999  
2001-05-28 10:47:30 51°31.257 3°0.035 -999 -999 -999  
2001-05-28 10:47:35 51°31.244 3°0.013 -999 -999 -999  
2001-05-28 10:47:40 51°31.231 2°59.991 -999 -999 -999  
2001-05-28 10:47:45 51°31.218 2°59.968 -999 -999 -999  
2001-05-28 10:47:50 51°31.205 2°59.945 -999 -999 -999  
2001-05-28 10:47:55 51°31.192 2°59.924 -999 -999 -999  
2001-05-28 10:48:00 51°31.179 2°59.902 -999 -999 -999  
2001-05-28 10:48:05 51°31.165 2°59.881 -999 -999 -999  
2001-05-28 10:48:10 51°31.152 2°59.859 -999 -999 -999  
2001-05-28 10:48:15 51°31.139 2°59.837 -999 -999 -999  
2001-05-28 10:48:20 51°31.126 2°59.815 -999 -999 -999  
2001-05-28 10:48:25 51°31.113 2°59.793 -999 -999 -999  
2001-05-28 10:48:30 51°31.099 2°59.772 -999 -999 -999  
2001-05-28 10:48:35 51°31.086 2°59.749 -999 -999 -999  
2001-05-28 10:48:40 51°31.073 2°59.726 -999 -999 -999  
2001-05-28 10:48:45 51°31.06 2°59.703 -999 -999 -999  
2001-05-28 10:48:50 51°31.047 2°59.681 -999 -999 -999  
2001-05-28 10:48:55 51°31.033 2°59.659 -999 -999 -999  
2001-05-28 10:49:00 51°31.019 2°59.637 -999 -999 -999  
2001-05-28 10:49:05 51°31.006 2°59.614 -999 -999 -999  
2001-05-28 10:49:10 51°30.992 2°59.593 -999 -999 -999  
2001-05-28 10:49:15 51°30.978 2°59.571 -999 -999 -999  
2001-05-28 10:49:20 51°30.965 2°59.549 -999 -999 -999  
2001-05-28 10:49:25 51°30.951 2°59.527 -999 -999 -999  
2001-05-28 10:49:30 51°30.937 2°59.505 -999 -999 -999  
2001-05-28 10:49:35 51°30.923 2°59.483 -999 -999 -999  
2001-05-28 10:49:40 51°30.908 2°59.462 -999 -999 -999  
2001-05-28 10:49:45 51°30.894 2°59.441 -999 -999 -999  
2001-05-28 10:49:50 51°30.88 2°59.419 -999 -999 -999  
2001-05-28 10:49:55 51°30.866 2°59.397 -999 -999 -999  
2001-05-28 10:50:00 51°30.853 2°59.375 -999 -999 -999  
2001-05-28 10:50:05 51°30.838 2°59.354 -999 -999 -999  
2001-05-28 10:50:10 51°30.824 2°59.332 -999 -999 -999  
2001-05-28 10:50:15 51°30.81 2°59.309 -999 -999 -999  
2001-05-28 10:50:20 51°30.796 2°59.287 -999 -999 -999  
2001-05-28 10:50:25 51°30.782 2°59.265 -999 -999 -999  
2001-05-28 10:50:30 51°30.768 2°59.243 -999 -999 -999  
2001-05-28 10:50:35 51°30.754 2°59.223 -999 -999 -999  
2001-05-28 10:50:40 51°30.739 2°59.202 -999 -999 -999  
2001-05-28 10:50:45 51°30.725 2°59.181 -999 -999 -999  
2001-05-28 10:50:50 51°30.711 2°59.159 -999 -999 -999  
2001-05-28 10:50:55 51°30.697 2°59.137 -999 -999 -999  
2001-05-28 10:51:00 51°30.683 2°59.115 -999 -999 -999  
2001-05-28 10:51:06 51°30.666 2°59.09 -999 -999 -999  
2001-05-28 10:51:10 51°30.654 2°59.073 -999 -999 -999  
2001-05-28 10:51:15 51°30.64 2°59.052 -999 -999 -999  
2001-05-28 10:51:20 51°30.626 2°59.031 -999 -999 -999  
2001-05-28 10:51:25 51°30.612 2°59.01 -999 -999 -999  
2001-05-28 10:51:30 51°30.599 2°58.988 -999 -999 -999  
2001-05-28 10:51:35 51°30.585 2°58.965 -999 -999 -999  
2001-05-28 10:51:40 51°30.571 2°58.943 -999 -999 -999  
2001-05-28 10:51:45 51°30.556 2°58.921 -999 -999 -999  
2001-05-28 10:51:50 51°30.542 2°58.899 -999 -999 -999  
2001-05-28 10:51:55 51°30.528 2°58.878 -999 -999 -999  
2001-05-28 10:52:00 51°30.514 2°58.857 -999 -999 -999  
2001-05-28 10:52:05 51°30.5 2°58.835 -999 -999 -999  
2001-05-28 10:52:10 51°30.487 2°58.813 -999 -999 -999  
2001-05-28 10:52:15 51°30.473 2°58.792 -999 -999 -999  
2001-05-28 10:52:20 51°30.459 2°58.771 -999 -999 -999  
2001-05-28 10:52:25 51°30.445 2°58.75 -999 -999 -999  
2001-05-28 10:52:30 51°30.431 2°58.728 -999 -999 -999  
2001-05-28 10:52:35 51°30.417 2°58.705 -999 -999 -999  
2001-05-28 10:52:40 51°30.403 2°58.683 -999 -999 -999  
2001-05-28 10:52:45 51°30.389 2°58.661 -999 -999 -999  
2001-05-28 10:52:50 51°30.375 2°58.639 -999 -999 -999  
2001-05-28 10:52:55 51°30.361 2°58.617 -999 -999 -999  
2001-05-28 10:53:00 51°30.348 2°58.595 -999 -999 -999  
2001-05-28 10:53:05 51°30.334 2°58.573 -999 -999 -999  
2001-05-28 10:53:10 51°30.32 2°58.551 -999 -999 -999  
2001-05-28 10:53:15 51°30.306 2°58.529 -999 -999 -999  
2001-05-28 10:53:20 51°30.292 2°58.507 -999 -999 -999  
2001-05-28 10:53:25 51°30.278 2°58.486 -999 -999 -999  
2001-05-28 10:53:30 51°30.264 2°58.463 -999 -999 -999  
2001-05-28 10:53:35 51°30.251 2°58.441 -999 -999 -999  
2001-05-28 10:53:40 51°30.237 2°58.419 -999 -999 -999  
2001-05-28 10:53:45 51°30.222 2°58.397 -999 -999 -999  
2001-05-28 10:53:50 51°30.208 2°58.376 -999 -999 -999  
2001-05-28 10:53:55 51°30.192 2°58.356 -999 -999 -999  
2001-05-28 10:54:00 51°30.178 2°58.336 -999 -999 -999  
2001-05-28 10:54:05 51°30.163 2°58.316 -999 -999 -999  
2001-05-28 10:54:10 51°30.148 2°58.295 -999 -999 -999  
2001-05-28 10:54:15 51°30.133 2°58.275 -999 -999 -999  
2001-05-28 10:54:20 51°30.118 2°58.254 -999 -999 -999  
2001-05-28 10:54:25 51°30.103 2°58.233 -999 -999 -999  
2001-05-28 10:54:30 51°30.088 2°58.211 -999 -999 -999  
2001-05-28 10:54:35 51°30.073 2°58.191 -999 -999 -999  
2001-05-28 10:54:40 51°30.058 2°58.171 -999 -999 -999  
2001-05-28 10:54:45 51°30.043 2°58.151 -999 -999 -999  
2001-05-28 10:54:50 51°30.027 2°58.131 -999 -999 -999  
2001-05-28 10:54:55 51°30.012 2°58.111 -999 -999 -999  
2001-05-28 10:55:00 51°29.997 2°58.091 -999 -999 -999  
2001-05-28 10:55:05 51°29.982 2°58.072 -999 -999 -999  
2001-05-28 10:55:10 51°29.966 2°58.052 -999 -999 -999  
2001-05-28 10:55:15 51°29.951 2°58.031 -999 -999 -999  
2001-05-28 10:55:20 51°29.936 2°58.01 -999 -999 -999  
2001-05-28 10:55:25 51°29.922 2°57.989 -999 -999 -999  
2001-05-28 10:55:30 51°29.907 2°57.967 -999 -999 -999  
2001-05-28 10:55:35 51°29.893 2°57.946 -999 -999 -999  
2001-05-28 10:55:40 51°29.878 2°57.924 -999 -999 -999  
2001-05-28 10:55:45 51°29.863 2°57.903 -999 -999 -999  
2001-05-28 10:55:50 51°29.848 2°57.884 -999 -999 -999  
2001-05-28 10:55:55 51°29.833 2°57.863 -999 -999 -999  
2001-05-28 10:56:00 51°29.819 2°57.843 -999 -999 -999  
2001-05-28 10:56:05 51°29.804 2°57.822 -999 -999 -999  
2001-05-28 10:56:10 51°29.789 2°57.801 -999 -999 -999  
2001-05-28 10:56:15 51°29.775 2°57.78 -999 -999 -999  
2001-05-28 10:56:20 51°29.76 2°57.758 -999 -999 -999  
2001-05-28 10:56:25 51°29.746 2°57.736 -999 -999 -999  
2001-05-28 10:56:30 51°29.731 2°57.714 -999 -999 -999  
2001-05-28 10:56:35 51°29.717 2°57.692 -999 -999 -999  
2001-05-28 10:56:40 51°29.703 2°57.67 -999 -999 -999  
2001-05-28 10:56:45 51°29.689 2°57.649 -999 -999 -999  
2001-05-28 10:56:50 51°29.674 2°57.628 -999 -999 -999  
2001-05-28 10:56:55 51°29.659 2°57.607 -999 -999 -999  
2001-05-28 10:57:00 51°29.644 2°57.587 -999 -999 -999  
2001-05-28 10:57:05 51°29.629 2°57.566 -999 -999 -999  
2001-05-28 10:57:10 51°29.613 2°57.547 -999 -999 -999  
2001-05-28 10:57:15 51°29.598 2°57.527 -999 -999 -999  
2001-05-28 10:57:20 51°29.582 2°57.508 -999 -999 -999  
2001-05-28 10:57:25 51°29.566 2°57.489 -999 -999 -999  
2001-05-28 10:57:30 51°29.551 2°57.47 -999 -999 -999  
2001-05-28 10:57:35 51°29.536 2°57.451 -999 -999 -999  
2001-05-28 10:57:40 51°29.521 2°57.431 -999 -999 -999  
2001-05-28 10:57:45 51°29.506 2°57.412 -999 -999 -999  
2001-05-28 10:57:50 51°29.492 2°57.392 -999 -999 -999  
2001-05-28 10:57:55 51°29.478 2°57.371 -999 -999 -999  
2001-05-28 10:58:00 51°29.463 2°57.35 -999 -999 -999  
2001-05-28 10:58:05 51°29.448 2°57.329 -999 -999 -999  
2001-05-28 10:58:10 51°29.433 2°57.308 -999 -999 -999  
2001-05-28 10:58:15 51°29.418 2°57.287 -999 -999 -999  
2001-05-28 10:58:20 51°29.403 2°57.267 -999 -999 -999  
2001-05-28 10:58:25 51°29.388 2°57.247 -999 -999 -999  
2001-05-28 10:58:30 51°29.373 2°57.227 -999 -999 -999  
2001-05-28 10:58:35 51°29.357 2°57.207 -999 -999 -999  
2001-05-28 10:58:40 51°29.342 2°57.188 -999 -999 -999  
2001-05-28 10:58:45 51°29.328 2°57.167 -999 -999 -999  
2001-05-28 10:58:50 51°29.313 2°57.145 -999 -999 -999  
2001-05-28 10:58:55 51°29.298 2°57.125 -999 -999 -999  
2001-05-28 10:59:00 51°29.283 2°57.103 -999 -999 -999  
2001-05-28 10:59:05 51°29.268 2°57.083 -999 -999 -999  
2001-05-28 10:59:10 51°29.253 2°57.062 -999 -999 -999  
2001-05-28 10:59:15 51°29.238 2°57.042 -999 -999 -999  
2001-05-28 10:59:20 51°29.223 2°57.021 -999 -999 -999  
2001-05-28 10:59:25 51°29.208 2°57 -999 -999 -999  
2001-05-28 10:59:30 51°29.193 2°56.978 -999 -999 -999  
2001-05-28 10:59:35 51°29.178 2°56.957 -999 -999 -999  
2001-05-28 10:59:40 51°29.164 2°56.935 -999 -999 -999  
2001-05-28 10:59:45 51°29.149 2°56.913 -999 -999 -999  
2001-05-28 10:59:50 51°29.134 2°56.892 -999 -999 -999  
2001-05-28 10:59:55 51°29.119 2°56.871 -999 -999 -999  
2001-05-28 11:00:00 51°29.104 2°56.852 -999 -999 -999  
2001-05-28 11:00:05 51°29.088 2°56.834 -999 -999 -999  
2001-05-28 11:00:10 51°29.073 2°56.816 -999 -999 -999  
2001-05-28 11:00:15 51°29.057 2°56.797 -999 -999 -999  
2001-05-28 11:00:20 51°29.042 2°56.778 -999 -999 -999  
2001-05-28 11:00:25 51°29.027 2°56.759 -999 -999 -999  
2001-05-28 11:00:30 51°29.012 2°56.74 -999 -999 -999  
2001-05-28 11:00:35 51°28.997 2°56.721 -999 -999 -999  
2001-05-28 11:00:40 51°28.982 2°56.703 -999 -999 -999  
2001-05-28 11:00:45 51°28.967 2°56.683 -999 -999 -999  
2001-05-28 11:00:50 51°28.952 2°56.663 -999 -999 -999  
2001-05-28 11:00:55 51°28.938 2°56.641 -999 -999 -999  
2001-05-28 11:01:00 51°28.923 2°56.619 -999 -999 -999  
2001-05-28 11:01:05 51°28.908 2°56.598 -999 -999 -999  
2001-05-28 11:01:10 51°28.892 2°56.576 -999 -999 -999  
2001-05-28 11:01:15 51°28.877 2°56.555 -999 -999 -999  
2001-05-28 11:01:20 51°28.862 2°56.535 -999 -999 -999  
2001-05-28 11:01:25 51°28.847 2°56.514 -999 -999 -999  
2001-05-28 11:01:30 51°28.833 2°56.493 -999 -999 -999  
2001-05-28 11:01:35 51°28.818 2°56.472 -999 -999 -999  
2001-05-28 11:01:40 51°28.804 2°56.45 -999 -999 -999  
2001-05-28 11:01:45 51°28.789 2°56.43 -999 -999 -999  
2001-05-28 11:01:50 51°28.775 2°56.408 -999 -999 -999  
2001-05-28 11:01:55 51°28.76 2°56.387 -999 -999 -999  
2001-05-28 11:02:00 51°28.745 2°56.366 -999 -999 -999  
2001-05-28 11:02:05 51°28.73 2°56.345 -999 -999 -999  
2001-05-28 11:02:10 51°28.715 2°56.324 -999 -999 -999  
2001-05-28 11:02:15 51°28.699 2°56.303 -999 -999 -999  
2001-05-28 11:02:20 51°28.684 2°56.281 -999 -999 -999  
2001-05-28 11:02:25 51°28.67 2°56.26 -999 -999 -999  
2001-05-28 11:02:30 51°28.655 2°56.239 -999 -999 -999  
2001-05-28 11:02:35 51°28.64 2°56.217 -999 -999 -999  
2001-05-28 11:02:41 51°28.621 2°56.191 -999 -999 -999  
2001-05-28 11:02:45 51°28.609 2°56.175 -999 -999 -999  
2001-05-28 11:02:50 51°28.594 2°56.154 -999 -999 -999  
2001-05-28 11:02:55 51°28.579 2°56.134 -999 -999 -999  
2001-05-28 11:03:00 51°28.563 2°56.113 -999 -999 -999  
2001-05-28 11:03:05 51°28.548 2°56.092 -999 -999 -999  
2001-05-28 11:03:10 51°28.533 2°56.071 -999 -999 -999  
2001-05-28 11:03:15 51°28.518 2°56.049 -999 -999 -999  
2001-05-28 11:03:20 51°28.503 2°56.028 -999 -999 -999  
2001-05-28 11:03:25 51°28.488 2°56.007 -999 -999 -999  
2001-05-28 11:03:30 51°28.473 2°55.986 -999 -999 -999  
2001-05-28 11:03:35 51°28.457 2°55.967 -999 -999 -999  
2001-05-28 11:03:40 51°28.441 2°55.948 -999 -999 -999  
2001-05-28 11:03:45 51°28.426 2°55.929 -999 -999 -999  
2001-05-28 11:03:50 51°28.411 2°55.91 -999 -999 -999  
2001-05-28 11:03:55 51°28.397 2°55.889 -999 -999 -999  
2001-05-28 11:04:00 51°28.382 2°55.869 -999 -999 -999  
2001-05-28 11:04:05 51°28.367 2°55.848 -999 -999 -999  
2001-05-28 11:04:10 51°28.352 2°55.828 -999 -999 -999  
2001-05-28 11:04:15 51°28.337 2°55.807 -999 -999 -999  
2001-05-28 11:04:20 51°28.321 2°55.785 -999 -999 -999  
2001-05-28 11:04:25 51°28.306 2°55.763 -999 -999 -999  
2001-05-28 11:04:30 51°28.291 2°55.742 -999 -999 -999  
2001-05-28 11:04:35 51°28.276 2°55.722 -999 -999 -999  
2001-05-28 11:04:40 51°28.261 2°55.701 -999 -999 -999  
2001-05-28 11:04:45 51°28.246 2°55.681 -999 -999 -999  
2001-05-28 11:04:50 51°28.231 2°55.66 -999 -999 -999  
2001-05-28 11:04:55 51°28.216 2°55.638 -999 -999 -999  
2001-05-28 11:05:00 51°28.201 2°55.617 -999 -999 -999  
2001-05-28 11:05:05 51°28.186 2°55.597 -999 -999 -999  
2001-05-28 11:05:10 51°28.17 2°55.577 -999 -999 -999  
2001-05-28 11:05:15 51°28.155 2°55.558 -999 -999 -999  
2001-05-28 11:05:20 51°28.139 2°55.538 -999 -999 -999  
2001-05-28 11:05:25 51°28.124 2°55.519 -999 -999 -999  
2001-05-28 11:05:30 51°28.108 2°55.499 -999 -999 -999  
2001-05-28 11:05:36 51°28.09 2°55.475 -999 -999 -999  
2001-05-28 11:05:40 51°28.078 2°55.458 -999 -999 -999  
2001-05-28 11:05:45 51°28.063 2°55.437 -999 -999 -999  
2001-05-28 11:05:50 51°28.049 2°55.414 -999 -999 -999  
2001-05-28 11:05:55 51°28.035 2°55.39 -999 -999 -999  
2001-05-28 11:06:00 51°28.021 2°55.367 -999 -999 -999  
2001-05-28 11:06:05 51°28.009 2°55.342 -999 -999 -999  
2001-05-28 11:06:10 51°27.996 2°55.317 -999 -999 -999  
2001-05-28 11:06:15 51°27.985 2°55.291 -999 -999 -999  
2001-05-28 11:06:20 51°27.974 2°55.265 -999 -999 -999  
2001-05-28 11:06:25 51°27.963 2°55.237 -999 -999 -999  
2001-05-28 11:06:30 51°27.953 2°55.209 -999 -999 -999  
2001-05-28 11:06:35 51°27.942 2°55.182 -999 -999 -999  
2001-05-28 11:06:40 51°27.931 2°55.155 -999 -999 -999  
2001-05-28 11:06:45 51°27.921 2°55.128 -999 -999 -999  
2001-05-28 11:06:50 51°27.91 2°55.101 -999 -999 -999  
2001-05-28 11:06:55 51°27.9 2°55.073 -999 -999 -999  
2001-05-28 11:07:00 51°27.889 2°55.045 -999 -999 -999  
2001-05-28 11:07:05 51°27.878 2°55.018 -999 -999 -999  
2001-05-28 11:07:10 51°27.868 2°54.99 -999 -999 -999  
2001-05-28 11:07:16 51°27.854 2°54.959 -999 -999 -999  
2001-05-28 11:07:20 51°27.844 2°54.938 -999 -999 -999  
2001-05-28 11:07:25 51°27.832 2°54.913 -999 -999 -999  
2001-05-28 11:07:30 51°27.819 2°54.889 -999 -999 -999  
2001-05-28 11:07:35 51°27.805 2°54.864 -999 -999 -999  
2001-05-28 11:07:40 51°27.792 2°54.84 -999 -999 -999  
2001-05-28 11:07:45 51°27.779 2°54.815 -999 -999 -999  
2001-05-28 11:07:50 51°27.766 2°54.791 -999 -999 -999  
2001-05-28 11:07:56 51°27.75 2°54.762 -999 -999 -999  
2001-05-28 11:08:00 51°27.74 2°54.742 -999 -999 -999  
2001-05-28 11:08:05 51°27.728 2°54.716 -999 -999 -999  
2001-05-28 11:08:10 51°27.716 2°54.691 -999 -999 -999  
2001-05-28 11:08:15 51°27.704 2°54.665 -999 -999 -999  
2001-05-28 11:08:20 51°27.692 2°54.639 -999 -999 -999